Time;durP1;ratioP1;P1;durP2;ratioP2;P2;SDS_P1;SDS_P2;PMS_P1;PMS_P2;Temp;Humidity;BMP_temperature;BMP_pressure;BME280_temperature;BME280_humidity;BME280_pressure;Samples;Min_cycle;Max_cycle;Signal;HPM_P1;HPM_P2
2022/01/03 00:01:04;;;;;;;0.00;0.00;;;;;;;;;;4216241;28;20109;-43
2022/01/03 00:03:07;;;;;;;0.15;0.10;;;;;;;;;;4216190;28;20047;-41
2022/01/03 00:05:08;;;;;;;0.10;0.10;;;;;;;;;;4215944;28;20567;-42
2022/01/03 00:07:11;;;;;;;0.10;0.10;;;;;;;;;;4215763;28;20048;-42
2022/01/03 00:09:12;;;;;;;0.10;0.10;;;;;;;;;;4215943;28;20442;-42
2022/01/03 00:11:15;;;;;;;0.10;0.10;;;;;;;;;;4216079;28;20052;-42
2022/01/03 00:13:19;;;;;;;0.15;0.10;;;;;;;;;;4215801;28;20510;-42
2022/01/03 00:15:20;;;;;;;0.10;0.10;;;;;;;;;;4215805;28;20044;-42
2022/01/03 00:17:21;;;;;;;0.10;0.10;;;;;;;;;;4215653;28;20048;-42
2022/01/03 00:19:22;;;;;;;0.00;0.00;;;;;;;;;;4215895;28;20094;-42
2022/01/03 00:21:31;;;;;;;0.20;0.10;;;;;;;;;;4215798;28;20204;-42
2022/01/03 00:23:36;;;;;;;0.10;0.00;;;;;;;;;;4215182;28;20056;-42
2022/01/03 00:25:40;;;;;;;0.20;0.20;;;;;;;;;;4216046;28;20044;-43
2022/01/03 00:27:47;;;;;;;0.00;0.00;;;;;;;;;;4215654;28;20546;-41
2022/01/03 00:29:50;;;;;;;0.08;0.05;;;;;;;;;;4215678;28;20082;-42
2022/01/03 00:31:52;;;;;;;0.00;0.00;;;;;;;;;;4215423;28;20400;-42
2022/01/03 00:33:56;;;;;;;0.03;0.03;;;;;;;;;;4215658;28;20074;-42
2022/01/03 00:35:59;;;;;;;0.10;0.10;;;;;;;;;;4197640;28;20079;-42
2022/01/03 00:38:00;;;;;;;0.00;0.00;;;;;;;;;;4215082;28;20048;-42
2022/01/03 00:40:02;;;;;;;0.17;0.10;;;;;;;;;;4215598;28;20054;-41
2022/01/03 00:42:05;;;;;;;0.08;0.08;;;;;;;;;;4215505;28;20455;-42
2022/01/03 00:44:06;;;;;;;0.00;0.00;;;;;;;;;;4215444;28;20056;-41
2022/01/03 00:46:08;;;;;;;0.10;0.10;;;;;;;;;;4215215;28;20063;-42
2022/01/03 00:48:09;;;;;;;0.20;0.10;;;;;;;;;;4214395;28;20055;-42
2022/01/03 00:50:12;;;;;;;0.00;0.00;;;;;;;;;;4215564;28;20052;-42
2022/01/03 00:52:13;;;;;;;0.10;0.10;;;;;;;;;;4214913;28;20048;-41
2022/01/03 00:54:14;;;;;;;0.10;0.10;;;;;;;;;;4215324;28;20040;-42
2022/01/03 00:56:18;;;;;;;0.10;0.10;;;;;;;;;;4215466;28;20089;-42
2022/01/03 00:58:21;;;;;;;0.10;0.10;;;;;;;;;;4215051;28;20052;-42
2022/01/03 01:00:22;;;;;;;0.10;0.10;;;;;;;;;;4197374;28;20078;-42
2022/01/03 01:02:25;;;;;;;0.20;0.10;;;;;;;;;;4215148;28;20055;-41
2022/01/03 01:04:26;;;;;;;0.10;0.10;;;;;;;;;;4197316;28;20524;-42
2022/01/03 01:06:32;;;;;;;0.10;0.10;;;;;;;;;;4197392;28;20044;-42
2022/01/03 01:08:35;;;;;;;0.00;0.00;;;;;;;;;;4196586;28;20099;-42
2022/01/03 01:10:37;;;;;;;0.10;0.10;;;;;;;;;;4215276;28;20048;-41
2022/01/03 01:12:41;;;;;;;0.10;0.10;;;;;;;;;;4214913;28;20052;-42
2022/01/03 01:14:42;;;;;;;0.10;0.10;;;;;;;;;;4197213;28;20053;-41
2022/01/03 01:16:43;;;;;;;0.10;0.10;;;;;;;;;;4196759;28;20083;-42
2022/01/03 01:18:44;;;;;;;0.10;0.10;;;;;;;;;;4196885;28;20040;-42
2022/01/03 01:20:45;;;;;;;0.10;0.10;;;;;;;;;;4196874;28;20056;-41
2022/01/03 01:22:47;;;;;;;0.10;0.10;;;;;;;;;;4196506;28;20056;-42
2022/01/03 01:25:09;;;;;;;0.10;0.10;;;;;;;;;;4214495;28;20059;-43
2022/01/03 01:29:29;;;;;;;0.10;0.10;;;;;;;;;;4214538;28;20051;-43
2022/01/03 01:31:32;;;;;;;0.10;0.00;;;;;;;;;;4196741;28;20048;-41
2022/01/03 01:33:34;;;;;;;0.10;0.10;;;;;;;;;;4214515;28;20048;-41
2022/01/03 01:35:38;;;;;;;0.03;0.03;;;;;;;;;;4214679;28;20043;-42
2022/01/03 01:37:40;;;;;;;0.20;0.10;;;;;;;;;;4196095;28;20044;-42
2022/01/03 01:39:42;;;;;;;0.00;0.00;;;;;;;;;;4196829;28;20059;-42
2022/01/03 01:41:44;;;;;;;0.10;0.10;;;;;;;;;;4180234;28;20056;-42
2022/01/03 01:43:48;;;;;;;0.10;0.10;;;;;;;;;;4196592;28;20052;-41
2022/01/03 01:45:52;;;;;;;0.10;0.10;;;;;;;;;;4196893;28;20057;-42
2022/01/03 01:47:54;;;;;;;0.10;0.10;;;;;;;;;;4196520;28;20131;-42
2022/01/03 01:49:56;;;;;;;0.10;0.10;;;;;;;;;;4214485;28;20067;-42
2022/01/03 01:52:02;;;;;;;0.15;0.10;;;;;;;;;;4195797;28;20110;-42
2022/01/03 01:54:12;;;;;;;0.05;0.05;;;;;;;;;;4196534;28;20193;-42
2022/01/03 01:56:15;;;;;;;0.10;0.10;;;;;;;;;;4196267;28;20048;-43
2022/01/03 01:58:21;;;;;;;0.10;0.10;;;;;;;;;;4196117;28;20048;-42
2022/01/03 02:00:25;;;;;;;0.10;0.10;;;;;;;;;;4196273;28;20060;-41
2022/01/03 02:02:42;;;;;;;0.00;0.00;;;;;;;;;;4196192;28;20068;-41
2022/01/03 02:04:45;;;;;;;0.10;0.10;;;;;;;;;;4213013;28;20051;-42
2022/01/03 02:06:47;;;;;;;0.10;0.10;;;;;;;;;;4195844;28;20087;-42
2022/01/03 02:08:55;;;;;;;0.15;0.10;;;;;;;;;;4196114;28;20060;-42
2022/01/03 02:11:12;;;;;;;0.10;0.10;;;;;;;;;;4196100;28;20060;-42
2022/01/03 02:13:16;;;;;;;0.10;0.10;;;;;;;;;;4195955;28;20048;-42
2022/01/03 02:15:18;;;;;;;0.10;0.10;;;;;;;;;;4196155;28;20462;-42
2022/01/03 02:17:20;;;;;;;0.10;0.10;;;;;;;;;;4195858;28;20040;-42
2022/01/03 02:19:21;;;;;;;0.00;0.00;;;;;;;;;;4213980;28;20062;-41
2022/01/03 02:21:23;;;;;;;0.20;0.10;;;;;;;;;;4195918;28;20052;-41
2022/01/03 02:23:26;;;;;;;0.10;0.10;;;;;;;;;;4195388;28;20048;-42
2022/01/03 02:25:29;;;;;;;0.00;0.00;;;;;;;;;;4196080;28;20048;-42
2022/01/03 02:27:30;;;;;;;0.10;0.10;;;;;;;;;;4213661;28;20044;-42
2022/01/03 02:29:32;;;;;;;0.15;0.10;;;;;;;;;;4196137;28;20057;-42
2022/01/03 02:31:34;;;;;;;0.10;0.10;;;;;;;;;;4196197;28;20048;-41
2022/01/03 02:33:35;;;;;;;0.17;0.10;;;;;;;;;;4213879;28;20472;-42
2022/01/03 02:35:39;;;;;;;0.03;0.03;;;;;;;;;;4195849;28;20113;-42
2022/01/03 02:37:43;;;;;;;0.10;0.10;;;;;;;;;;4178704;28;20049;-42
2022/01/03 02:39:44;;;;;;;0.00;0.00;;;;;;;;;;4196092;28;20126;-42
2022/01/03 02:41:45;;;;;;;0.00;0.00;;;;;;;;;;4213568;28;20426;-42
2022/01/03 02:43:48;;;;;;;0.10;0.05;;;;;;;;;;4213991;28;20138;-42
2022/01/03 02:45:49;;;;;;;0.00;0.00;;;;;;;;;;4195711;28;20471;-42
2022/01/03 02:47:52;;;;;;;0.03;0.03;;;;;;;;;;4213523;28;20075;-42
2022/01/03 02:49:53;;;;;;;0.20;0.20;;;;;;;;;;4195656;28;20048;-42
2022/01/03 02:51:54;;;;;;;0.10;0.10;;;;;;;;;;4213455;28;20097;-41
2022/01/03 02:53:55;;;;;;;0.10;0.10;;;;;;;;;;4213704;28;20373;-42
2022/01/03 02:55:56;;;;;;;0.10;0.10;;;;;;;;;;4195873;28;20385;-42
2022/01/03 02:58:06;;;;;;;0.05;0.05;;;;;;;;;;4195517;28;20079;-41
2022/01/03 03:00:11;;;;;;;0.10;0.10;;;;;;;;;;4195646;28;20052;-41
2022/01/03 03:02:13;;;;;;;0.10;0.10;;;;;;;;;;4206944;28;20064;-42
2022/01/03 03:04:14;;;;;;;0.00;0.00;;;;;;;;;;4197470;28;20500;-42
2022/01/03 03:06:15;;;;;;;0.20;0.10;;;;;;;;;;4178925;28;20382;-42
2022/01/03 03:08:17;;;;;;;0.10;0.10;;;;;;;;;;4196247;28;20101;-43
2022/01/03 03:10:19;;;;;;;0.10;0.10;;;;;;;;;;4197354;28;20052;-42
2022/01/03 03:12:21;;;;;;;0.10;0.10;;;;;;;;;;4182432;28;20113;-42
2022/01/03 03:14:22;;;;;;;0.10;0.10;;;;;;;;;;4198829;28;20476;-42
2022/01/03 03:16:25;;;;;;;0.10;0.10;;;;;;;;;;4182345;28;20080;-42
2022/01/03 03:18:26;;;;;;;0.10;0.10;;;;;;;;;;4207189;28;20089;-42
2022/01/03 03:20:28;;;;;;;0.00;0.00;;;;;;;;;;4216852;28;20060;-41
2022/01/03 03:22:29;;;;;;;0.20;0.10;;;;;;;;;;4216485;28;20081;-42
2022/01/03 03:24:33;;;;;;;0.10;0.10;;;;;;;;;;4198578;28;20052;-42
2022/01/03 03:26:34;;;;;;;0.10;0.10;;;;;;;;;;4198757;28;20114;-43
2022/01/03 03:28:36;;;;;;;0.00;0.00;;;;;;;;;;4198886;28;20052;-42
2022/01/03 03:30:39;;;;;;;0.03;0.00;;;;;;;;;;4198426;28;20060;-42
2022/01/03 03:32:42;;;;;;;0.10;0.10;;;;;;;;;;4165699;28;20053;-42
2022/01/03 03:34:44;;;;;;;0.20;0.10;;;;;;;;;;4198830;28;20053;-42
2022/01/03 03:36:45;;;;;;;0.00;0.00;;;;;;;;;;4216244;28;20040;-42
2022/01/03 03:38:46;;;;;;;0.10;0.10;;;;;;;;;;4198359;28;20067;-42
2022/01/03 03:40:52;;;;;;;0.20;0.20;;;;;;;;;;4198496;28;20416;-42
2022/01/03 03:42:53;;;;;;;0.55;0.10;;;;;;;;;;4198450;28;20056;-42
2022/01/03 03:44:56;;;;;;;0.00;0.00;;;;;;;;;;4198704;28;20052;-42
2022/01/03 03:46:57;;;;;;;0.20;0.10;;;;;;;;;;4216168;28;20093;-42
2022/01/03 03:48:58;;;;;;;0.15;0.15;;;;;;;;;;4216587;28;20056;-42
2022/01/03 03:50:59;;;;;;;0.10;0.10;;;;;;;;;;4198567;28;20086;-42
2022/01/03 03:53:00;;;;;;;0.08;0.08;;;;;;;;;;4197769;28;20194;-42
2022/01/03 03:55:01;;;;;;;0.10;0.10;;;;;;;;;;4198154;28;20040;-43
2022/01/03 03:57:03;;;;;;;0.10;0.10;;;;;;;;;;4198120;28;20048;-43
2022/01/03 03:59:05;;;;;;;0.10;0.10;;;;;;;;;;4198256;28;20376;-42
2022/01/03 04:01:07;;;;;;;0.20;0.10;;;;;;;;;;4198293;28;20056;-42
2022/01/03 04:03:10;;;;;;;0.05;0.05;;;;;;;;;;4198021;28;20056;-42
2022/01/03 04:05:12;;;;;;;0.00;0.00;;;;;;;;;;4198183;28;20504;-42
2022/01/03 04:07:14;;;;;;;0.13;0.10;;;;;;;;;;4197505;28;20056;-42
2022/01/03 04:09:15;;;;;;;0.20;0.10;;;;;;;;;;4198002;28;20059;-42
2022/01/03 04:11:17;;;;;;;0.10;0.10;;;;;;;;;;4197985;28;20429;-41
2022/01/03 04:13:18;;;;;;;0.10;0.10;;;;;;;;;;4198079;28;20056;-42
2022/01/03 04:15:19;;;;;;;0.00;0.00;;;;;;;;;;4215925;28;20185;-42
2022/01/03 04:17:22;;;;;;;0.00;0.00;;;;;;;;;;4215764;28;20052;-42
2022/01/03 04:19:23;;;;;;;0.10;0.10;;;;;;;;;;4197977;28;20053;-42
2022/01/03 04:21:25;;;;;;;0.10;0.10;;;;;;;;;;4197756;28;20476;-42
2022/01/03 04:23:27;;;;;;;0.00;0.00;;;;;;;;;;4197171;28;20049;-42
2022/01/03 04:25:27;;;;;;;0.30;0.05;;;;;;;;;;4199176;28;20202;-42
2022/01/03 04:27:29;;;;;;;0.10;0.10;;;;;;;;;;4198913;28;20048;-42
2022/01/03 04:29:31;;;;;;;0.10;0.10;;;;;;;;;;4197978;28;20059;-42
2022/01/03 04:31:32;;;;;;;0.00;0.00;;;;;;;;;;4197692;28;20486;-42
2022/01/03 04:33:34;;;;;;;0.10;0.10;;;;;;;;;;4197685;28;20110;-42
2022/01/03 04:35:35;;;;;;;0.00;0.00;;;;;;;;;;4198976;28;20465;-42
2022/01/03 04:37:36;;;;;;;0.10;0.10;;;;;;;;;;4197302;28;20048;-41
2022/01/03 04:39:37;;;;;;;0.08;0.00;;;;;;;;;;4198931;28;20465;-42
2022/01/03 04:41:39;;;;;;;0.10;0.10;;;;;;;;;;4197323;28;20045;-43
2022/01/03 04:43:42;;;;;;;0.10;0.10;;;;;;;;;;4197591;28;20480;-42
2022/01/03 04:45:44;;;;;;;0.05;0.05;;;;;;;;;;4198900;28;20044;-42
2022/01/03 04:47:45;;;;;;;0.43;0.10;;;;;;;;;;4198683;28;20048;-42
2022/01/03 04:49:46;;;;;;;0.10;0.10;;;;;;;;;;4197402;28;20048;-42
2022/01/03 04:51:48;;;;;;;0.10;0.10;;;;;;;;;;4197027;28;20087;-42
2022/01/03 04:53:49;;;;;;;0.10;0.10;;;;;;;;;;4197449;28;20098;-42
2022/01/03 04:55:51;;;;;;;0.05;0.00;;;;;;;;;;4197728;28;20057;-43
2022/01/03 04:57:53;;;;;;;0.32;0.10;;;;;;;;;;4198453;28;20045;-42
2022/01/03 04:59:54;;;;;;;0.20;0.10;;;;;;;;;;4197165;28;20056;-42
2022/01/03 05:01:55;;;;;;;0.10;0.10;;;;;;;;;;4198555;28;20079;-41
2022/01/03 05:03:57;;;;;;;0.10;0.10;;;;;;;;;;4197285;28;20078;-42
2022/01/03 05:06:00;;;;;;;0.10;0.10;;;;;;;;;;4197039;28;20056;-41
2022/01/03 05:08:01;;;;;;;0.20;0.10;;;;;;;;;;4198022;28;20052;-42
2022/01/03 05:10:02;;;;;;;0.20;0.10;;;;;;;;;;4197098;28;20045;-42
2022/01/03 05:12:04;;;;;;;0.10;0.10;;;;;;;;;;4180822;28;20079;-41
2022/01/03 05:14:04;;;;;;;0.38;0.20;;;;;;;;;;4198439;28;20480;-42
2022/01/03 05:16:06;;;;;;;0.28;0.10;;;;;;;;;;4196994;28;20044;-42
2022/01/03 05:18:07;;;;;;;0.30;0.10;;;;;;;;;;4196910;28;20516;-42
2022/01/03 05:20:09;;;;;;;0.30;0.20;;;;;;;;;;4198216;28;20412;-41
2022/01/03 05:22:10;;;;;;;0.40;0.30;;;;;;;;;;4196449;28;20056;-41
2022/01/03 05:24:13;;;;;;;0.77;0.20;;;;;;;;;;4196729;28;20138;-42
2022/01/03 05:26:14;;;;;;;0.13;0.13;;;;;;;;;;4198274;28;20057;-42
2022/01/03 05:28:15;;;;;;;0.20;0.20;;;;;;;;;;4198161;28;20056;-42
2022/01/03 05:30:17;;;;;;;0.47;0.20;;;;;;;;;;4196660;28;20052;-42
2022/01/03 05:32:18;;;;;;;0.77;0.22;;;;;;;;;;4196792;28;20081;-41
2022/01/03 05:34:19;;;;;;;0.20;0.10;;;;;;;;;;4212949;28;20052;-42
2022/01/03 05:36:20;;;;;;;0.47;0.20;;;;;;;;;;4196510;28;20105;-42
2022/01/03 05:38:21;;;;;;;0.10;0.10;;;;;;;;;;4196046;28;20090;-42
2022/01/03 05:40:24;;;;;;;0.40;0.15;;;;;;;;;;4198157;28;20049;-42
2022/01/03 05:42:25;;;;;;;0.60;0.30;;;;;;;;;;4196409;28;20052;-42
2022/01/03 05:44:26;;;;;;;0.28;0.20;;;;;;;;;;4196438;28;20045;-42
2022/01/03 05:46:28;;;;;;;0.30;0.30;;;;;;;;;;4196459;28;20457;-42
2022/01/03 05:48:29;;;;;;;0.10;0.10;;;;;;;;;;4197791;28;20121;-42
2022/01/03 05:50:30;;;;;;;0.10;0.10;;;;;;;;;;4196221;28;20048;-41
2022/01/03 05:52:33;;;;;;;0.22;0.20;;;;;;;;;;4197072;28;20052;-42
2022/01/03 05:54:34;;;;;;;0.32;0.20;;;;;;;;;;4196464;28;20048;-42
2022/01/03 05:56:36;;;;;;;0.30;0.22;;;;;;;;;;4196348;28;20052;-42
2022/01/03 05:58:38;;;;;;;0.45;0.20;;;;;;;;;;4196246;28;20070;-42
2022/01/03 06:00:39;;;;;;;0.40;0.20;;;;;;;;;;4197689;28;20053;-41
2022/01/03 06:02:42;;;;;;;0.70;0.38;;;;;;;;;;4197237;28;20052;-42
2022/01/03 06:07:02;;;;;;;0.35;0.30;;;;;;;;;;4195544;28;20497;-42
2022/01/03 06:09:23;;;;;;;0.32;0.20;;;;;;;;;;4196120;28;20508;-42
2022/01/03 06:11:26;;;;;;;0.70;0.20;;;;;;;;;;4196424;28;20060;-42
2022/01/03 06:13:28;;;;;;;0.38;0.20;;;;;;;;;;4196207;28;20114;-42
2022/01/03 06:15:29;;;;;;;0.45;0.25;;;;;;;;;;4196031;28;20078;-42
2022/01/03 06:17:30;;;;;;;0.32;0.30;;;;;;;;;;4196196;28;20075;-41
2022/01/03 06:19:32;;;;;;;0.25;0.20;;;;;;;;;;4197289;28;20048;-43
2022/01/03 06:21:40;;;;;;;0.60;0.15;;;;;;;;;;4196005;28;20051;-41
2022/01/03 06:23:42;;;;;;;0.10;0.10;;;;;;;;;;4195867;28;20094;-42
2022/01/03 06:25:45;;;;;;;0.45;0.30;;;;;;;;;;4196024;28;20048;-42
2022/01/03 06:27:48;;;;;;;0.22;0.20;;;;;;;;;;4195779;28;20489;-42
2022/01/03 06:29:49;;;;;;;0.40;0.20;;;;;;;;;;4196049;28;20060;-42
2022/01/03 06:31:50;;;;;;;1.02;0.20;;;;;;;;;;4196920;28;20048;-42
2022/01/03 06:33:53;;;;;;;0.70;0.40;;;;;;;;;;4195786;28;20217;-41
2022/01/03 06:35:54;;;;;;;0.20;0.20;;;;;;;;;;4197345;28;20105;-42
2022/01/03 06:37:55;;;;;;;0.28;0.10;;;;;;;;;;4196561;28;20051;-42
2022/01/03 06:39:58;;;;;;;0.85;0.38;;;;;;;;;;4195709;28;20485;-42
2022/01/03 06:41:59;;;;;;;0.10;0.10;;;;;;;;;;4195573;28;20523;-41
2022/01/03 06:44:00;;;;;;;0.28;0.10;;;;;;;;;;4179065;28;20048;-42
2022/01/03 06:46:02;;;;;;;0.32;0.25;;;;;;;;;;4194981;28;20048;-43
2022/01/03 06:48:04;;;;;;;0.50;0.30;;;;;;;;;;4195749;28;20057;-42
2022/01/03 06:50:07;;;;;;;0.20;0.20;;;;;;;;;;4195878;28;20082;-43
2022/01/03 06:52:08;;;;;;;0.60;0.30;;;;;;;;;;4178385;28;20454;-42
2022/01/03 06:54:13;;;;;;;0.30;0.20;;;;;;;;;;4195580;28;20420;-42
2022/01/03 06:56:26;;;;;;;0.40;0.20;;;;;;;;;;4179080;28;20505;-42
2022/01/03 06:58:27;;;;;;;0.40;0.20;;;;;;;;;;4195456;28;20056;-42
2022/01/03 07:00:29;;;;;;;0.65;0.30;;;;;;;;;;4195562;28;20059;-42
2022/01/03 07:02:30;;;;;;;0.38;0.20;;;;;;;;;;4195408;28;20403;-42
2022/01/03 07:04:31;;;;;;;0.35;0.30;;;;;;;;;;4196718;28;20058;-41
2022/01/03 07:06:32;;;;;;;0.30;0.20;;;;;;;;;;4196469;28;20052;-42
2022/01/03 07:08:33;;;;;;;0.13;0.10;;;;;;;;;;4194567;28;20180;-42
2022/01/03 07:10:34;;;;;;;0.68;0.30;;;;;;;;;;4196351;28;20098;-42
2022/01/03 07:12:35;;;;;;;0.38;0.30;;;;;;;;;;4196408;28;20095;-42
2022/01/03 07:18:56;;;;;;;0.50;0.20;;;;;;;;;;4181725;28;20044;-42
2022/01/03 07:20:57;;;;;;;0.32;0.30;;;;;;;;;;4189185;28;20568;-42
2022/01/03 07:22:58;;;;;;;0.13;0.10;;;;;;;;;;4195253;28;20102;-42
2022/01/03 07:24:59;;;;;;;0.45;0.25;;;;;;;;;;4202578;28;20062;-42
2022/01/03 07:27:01;;;;;;;0.85;0.30;;;;;;;;;;4211130;28;20112;-41
2022/01/03 07:29:02;;;;;;;0.45;0.20;;;;;;;;;;4206702;28;20055;-43
2022/01/03 07:31:03;;;;;;;0.70;0.40;;;;;;;;;;4196649;28;20048;-41
2022/01/03 07:33:04;;;;;;;0.77;0.50;;;;;;;;;;4206418;28;20055;-42
2022/01/03 07:35:05;;;;;;;0.75;0.20;;;;;;;;;;4193527;28;20127;-43
2022/01/03 07:37:06;;;;;;;0.80;0.45;;;;;;;;;;4200029;28;20051;-41
2022/01/03 07:39:07;;;;;;;0.28;0.20;;;;;;;;;;4211283;28;20071;-42
2022/01/03 07:41:09;;;;;;;0.60;0.20;;;;;;;;;;4211286;28;20490;-42
2022/01/03 07:43:10;;;;;;;0.20;0.20;;;;;;;;;;4193870;28;20052;-42
2022/01/03 07:45:11;;;;;;;0.22;0.17;;;;;;;;;;4201372;28;20496;-41
2022/01/03 07:47:12;;;;;;;0.57;0.20;;;;;;;;;;4211942;28;20099;-42
2022/01/03 07:49:13;;;;;;;1.50;0.50;;;;;;;;;;4211679;28;20136;-42
2022/01/03 07:51:14;;;;;;;0.20;0.20;;;;;;;;;;4212399;28;20198;-42
2022/01/03 07:53:15;;;;;;;0.30;0.20;;;;;;;;;;4210436;28;20059;-43
2022/01/03 07:55:16;;;;;;;0.63;0.30;;;;;;;;;;4195962;28;20447;-42
2022/01/03 07:57:17;;;;;;;0.40;0.30;;;;;;;;;;4208243;28;20048;-42
2022/01/03 07:59:18;;;;;;;0.88;0.30;;;;;;;;;;4204173;28;20056;-42
2022/01/03 08:01:19;;;;;;;0.40;0.20;;;;;;;;;;4213533;28;20182;-43
2022/01/03 08:03:20;;;;;;;0.57;0.28;;;;;;;;;;4202154;28;20052;-42
2022/01/03 08:05:21;;;;;;;0.82;0.40;;;;;;;;;;4199006;28;20060;-42
2022/01/03 08:07:23;;;;;;;0.70;0.40;;;;;;;;;;4196036;28;20471;-43
2022/01/03 08:09:24;;;;;;;0.85;0.43;;;;;;;;;;4180105;28;20089;-42
2022/01/03 08:11:26;;;;;;;0.60;0.50;;;;;;;;;;4215483;28;20130;-42
2022/01/03 08:13:27;;;;;;;0.60;0.40;;;;;;;;;;4214750;28;20052;-43
2022/01/03 08:15:28;;;;;;;0.65;0.50;;;;;;;;;;4213289;28;20510;-42
2022/01/03 08:17:29;;;;;;;2.67;0.63;;;;;;;;;;4211925;28;20044;-42
2022/01/03 08:19:31;;;;;;;0.65;0.60;;;;;;;;;;4196103;28;20057;-43
2022/01/03 08:21:31;;;;;;;1.55;0.35;;;;;;;;;;4214593;28;20526;-43
2022/01/03 08:23:32;;;;;;;1.98;0.50;;;;;;;;;;4214004;28;20177;-43
2022/01/03 08:25:37;;;;;;;2.40;0.50;;;;;;;;;;4214682;28;20503;-43
2022/01/03 08:27:38;;;;;;;1.88;0.38;;;;;;;;;;4195709;28;20056;-43
2022/01/03 08:29:39;;;;;;;0.75;0.45;;;;;;;;;;4208502;28;20113;-43
2022/01/03 08:31:40;;;;;;;2.83;0.60;;;;;;;;;;4214436;28;20044;-43
2022/01/03 08:33:43;;;;;;;1.60;0.63;;;;;;;;;;4209221;28;20049;-43
2022/01/03 08:35:44;;;;;;;1.40;0.50;;;;;;;;;;4214184;28;20048;-43
2022/01/03 08:37:45;;;;;;;0.40;0.40;;;;;;;;;;4213777;28;20133;-43
2022/01/03 08:39:46;;;;;;;0.85;0.38;;;;;;;;;;4212958;28;20086;-43
2022/01/03 08:41:47;;;;;;;0.80;0.32;;;;;;;;;;4195925;28;20457;-43
2022/01/03 08:43:48;;;;;;;0.35;0.28;;;;;;;;;;4213856;28;20105;-43
2022/01/03 08:45:49;;;;;;;0.45;0.40;;;;;;;;;;4205003;28;20080;-43
2022/01/03 08:47:50;;;;;;;0.57;0.30;;;;;;;;;;4207988;28;20105;-42
2022/01/03 08:49:51;;;;;;;0.57;0.50;;;;;;;;;;4210985;28;20112;-43
2022/01/03 08:51:51;;;;;;;0.70;0.30;;;;;;;;;;4208217;28;20058;-42
2022/01/03 08:53:53;;;;;;;0.47;0.30;;;;;;;;;;4210409;28;20121;-42
2022/01/03 08:55:54;;;;;;;0.32;0.32;;;;;;;;;;4211326;28;20074;-43
2022/01/03 08:57:55;;;;;;;2.75;0.38;;;;;;;;;;4203542;28;20687;-43
2022/01/03 08:59:56;;;;;;;2.17;0.30;;;;;;;;;;4184150;28;21184;-43
2022/01/03 09:01:57;;;;;;;0.30;0.30;;;;;;;;;;4208480;28;20849;-42
2022/01/03 09:03:58;;;;;;;0.40;0.20;;;;;;;;;;4186620;28;20045;-42
2022/01/03 09:06:00;;;;;;;0.40;0.20;;;;;;;;;;4203478;28;20075;-42
2022/01/03 09:08:01;;;;;;;0.30;0.22;;;;;;;;;;4206388;28;20082;-42
2022/01/03 09:10:03;;;;;;;0.85;0.30;;;;;;;;;;4211335;28;20052;-42
2022/01/03 09:12:06;;;;;;;0.52;0.35;;;;;;;;;;4210724;28;20609;-43
2022/01/03 09:14:07;;;;;;;0.65;0.22;;;;;;;;;;4211905;28;20149;-42
2022/01/03 09:16:08;;;;;;;0.63;0.20;;;;;;;;;;4210746;28;20101;-43
2022/01/03 09:18:13;;;;;;;0.30;0.25;;;;;;;;;;4206005;28;20064;-42
2022/01/03 09:20:15;;;;;;;0.47;0.32;;;;;;;;;;4210488;28;20176;-43
2022/01/03 09:22:20;;;;;;;0.57;0.43;;;;;;;;;;4204262;28;20056;-43
2022/01/03 09:24:32;;;;;;;0.60;0.22;;;;;;;;;;4216935;28;20056;-42
2022/01/03 09:28:57;;;;;;;0.38;0.20;;;;;;;;;;4174189;28;20089;-43
2022/01/03 09:30:58;;;;;;;0.65;0.20;;;;;;;;;;4204653;28;20068;-43
2022/01/03 09:32:59;;;;;;;0.40;0.40;;;;;;;;;;4212654;28;20089;-42
2022/01/03 09:35:00;;;;;;;1.38;0.20;;;;;;;;;;4213293;28;20043;-42
2022/01/03 09:37:02;;;;;;;0.10;0.10;;;;;;;;;;4194239;28;20602;-43
2022/01/03 09:39:04;;;;;;;0.32;0.20;;;;;;;;;;4213822;28;20044;-42
2022/01/03 09:41:05;;;;;;;0.35;0.30;;;;;;;;;;4217507;28;20052;-45
2022/01/03 09:43:08;;;;;;;0.20;0.20;;;;;;;;;;4208168;28;20047;-42
2022/01/03 09:45:11;;;;;;;0.43;0.22;;;;;;;;;;4211737;28;20051;-43
2022/01/03 09:47:15;;;;;;;0.32;0.20;;;;;;;;;;4214510;28;20388;-42
2022/01/03 09:49:16;;;;;;;0.30;0.28;;;;;;;;;;4197434;28;20056;-43
2022/01/03 09:51:18;;;;;;;0.55;0.22;;;;;;;;;;4224601;28;20077;-43
2022/01/03 09:53:20;;;;;;;0.30;0.20;;;;;;;;;;4194476;28;20113;-43
2022/01/03 09:55:21;;;;;;;1.13;0.30;;;;;;;;;;4212979;28;20048;-42
2022/01/03 09:57:25;;;;;;;0.38;0.30;;;;;;;;;;4219885;28;20090;-42
2022/01/03 09:59:26;;;;;;;0.50;0.30;;;;;;;;;;4214287;28;20061;-42
2022/01/03 10:01:29;;;;;;;0.47;0.28;;;;;;;;;;4213491;28;20066;-43
2022/01/03 10:03:30;;;;;;;0.20;0.20;;;;;;;;;;4212330;28;20059;-42
2022/01/03 10:05:31;;;;;;;0.80;0.20;;;;;;;;;;4213260;28;20052;-43
2022/01/03 10:07:33;;;;;;;0.30;0.30;;;;;;;;;;4213333;28;20052;-42
2022/01/03 10:09:34;;;;;;;0.50;0.30;;;;;;;;;;4208154;28;20051;-42
2022/01/03 10:11:35;;;;;;;0.22;0.20;;;;;;;;;;4212640;28;20055;-42
2022/01/03 10:13:36;;;;;;;0.50;0.30;;;;;;;;;;4213070;28;20051;-42
2022/01/03 10:15:37;;;;;;;0.45;0.20;;;;;;;;;;4194949;28;20056;-42
2022/01/03 10:17:39;;;;;;;0.80;0.30;;;;;;;;;;4201979;28;20094;-43
2022/01/03 10:19:51;;;;;;;0.85;0.30;;;;;;;;;;4205469;28;20389;-42
2022/01/03 10:21:52;;;;;;;0.45;0.30;;;;;;;;;;4193717;28;20048;-42
2022/01/03 10:23:57;;;;;;;0.70;0.20;;;;;;;;;;4212031;28;20504;-42
2022/01/03 10:26:15;;;;;;;0.15;0.10;;;;;;;;;;4212718;28;20055;-42
2022/01/03 10:28:23;;;;;;;0.43;0.15;;;;;;;;;;4212100;28;20051;-42
2022/01/03 10:30:30;;;;;;;0.32;0.20;;;;;;;;;;4212317;28;20048;-42
2022/01/03 10:32:31;;;;;;;0.30;0.20;;;;;;;;;;4211363;28;20437;-42
2022/01/03 10:34:32;;;;;;;0.47;0.30;;;;;;;;;;4193007;28;20048;-43
2022/01/03 10:36:34;;;;;;;0.30;0.20;;;;;;;;;;4205564;28;20322;-43
2022/01/03 10:38:37;;;;;;;0.52;0.20;;;;;;;;;;4193290;28;20052;-43
2022/01/03 10:40:38;;;;;;;0.52;0.28;;;;;;;;;;4207261;28;20056;-43
2022/01/03 10:42:39;;;;;;;0.55;0.30;;;;;;;;;;4211633;28;20384;-42
2022/01/03 10:44:41;;;;;;;0.38;0.30;;;;;;;;;;4211093;28;20100;-43
2022/01/03 10:46:50;;;;;;;0.30;0.30;;;;;;;;;;4210796;28;20193;-42
2022/01/03 10:48:52;;;;;;;0.32;0.20;;;;;;;;;;4210471;28;20047;-42
2022/01/03 10:50:53;;;;;;;0.10;0.10;;;;;;;;;;4212255;28;20070;-42
2022/01/03 10:52:54;;;;;;;0.20;0.20;;;;;;;;;;4209265;28;20403;-43
2022/01/03 10:55:14;;;;;;;0.55;0.25;;;;;;;;;;4209734;28;20393;-42
2022/01/03 10:57:15;;;;;;;2.78;0.30;;;;;;;;;;4208871;28;20061;-42
2022/01/03 10:59:16;;;;;;;0.40;0.20;;;;;;;;;;4188661;28;20094;-43
2022/01/03 11:01:21;;;;;;;0.63;0.28;;;;;;;;;;4212085;28;20085;-42
2022/01/03 11:05:35;;;;;;;0.45;0.25;;;;;;;;;;4212095;28;20381;-42
2022/01/03 11:11:58;;;;;;;0.40;0.20;;;;;;;;;;4211592;28;20197;-42
2022/01/03 11:13:59;;;;;;;0.25;0.20;;;;;;;;;;4212057;28;20052;-42
2022/01/03 11:16:01;;;;;;;0.70;0.30;;;;;;;;;;4207838;28;20472;-42
2022/01/03 11:18:08;;;;;;;0.73;0.30;;;;;;;;;;4194061;28;20413;-44
2022/01/03 11:20:19;;;;;;;0.40;0.28;;;;;;;;;;4193467;28;20408;-43
2022/01/03 11:22:41;;;;;;;0.60;0.35;;;;;;;;;;4192193;28;20082;-42
2022/01/03 11:24:45;;;;;;;0.52;0.30;;;;;;;;;;4210519;28;20044;-42
2022/01/03 11:26:46;;;;;;;0.20;0.15;;;;;;;;;;4211310;28;20507;-42
2022/01/03 11:28:48;;;;;;;0.30;0.20;;;;;;;;;;4206022;28;20052;-42
2022/01/03 11:30:51;;;;;;;0.55;0.28;;;;;;;;;;4193519;28;20064;-43
2022/01/03 11:32:52;;;;;;;0.45;0.30;;;;;;;;;;4214988;28;20048;-42
2022/01/03 11:34:54;;;;;;;0.28;0.20;;;;;;;;;;4213737;28;20052;-42
2022/01/03 11:36:56;;;;;;;0.82;0.25;;;;;;;;;;4215341;28;20059;-43
2022/01/03 11:39:00;;;;;;;0.22;0.20;;;;;;;;;;4215106;28;20044;-43
2022/01/03 11:41:04;;;;;;;0.40;0.30;;;;;;;;;;4215323;28;20047;-42
2022/01/03 11:43:06;;;;;;;0.70;0.30;;;;;;;;;;4189887;28;20320;-43
2022/01/03 11:45:07;;;;;;;0.40;0.30;;;;;;;;;;4211965;28;20041;-43
2022/01/03 11:47:09;;;;;;;0.45;0.30;;;;;;;;;;4213752;28;20048;-43
2022/01/03 11:49:10;;;;;;;0.55;0.28;;;;;;;;;;4213082;28;20048;-43
2022/01/03 11:51:11;;;;;;;0.50;0.40;;;;;;;;;;4214634;28;20506;-45
2022/01/03 11:53:20;;;;;;;0.63;0.20;;;;;;;;;;4210630;28;20048;-43
2022/01/03 11:55:24;;;;;;;0.43;0.20;;;;;;;;;;4207428;28;20389;-42
2022/01/03 11:57:46;;;;;;;0.70;0.30;;;;;;;;;;4214970;28;20051;-42
2022/01/03 12:04:55;;;;;;;0.50;0.30;;;;;;;;;;4196043;28;20049;-43
2022/01/03 12:07:09;;;;;;;0.38;0.20;;;;;;;;;;4213263;28;20051;-43
2022/01/03 12:09:11;;;;;;;0.95;0.30;;;;;;;;;;4212534;28;20043;-43
2022/01/03 12:11:16;;;;;;;0.38;0.30;;;;;;;;;;4214413;28;20395;-42
2022/01/03 12:13:19;;;;;;;0.17;0.17;;;;;;;;;;4213133;28;20217;-43
2022/01/03 12:15:31;;;;;;;0.55;0.35;;;;;;;;;;4213904;28;20344;-43
2022/01/03 12:17:42;;;;;;;0.30;0.30;;;;;;;;;;4209386;28;20518;-42
2022/01/03 12:19:44;;;;;;;1.35;0.40;;;;;;;;;;4211172;28;20044;-42
2022/01/03 12:21:48;;;;;;;0.32;0.20;;;;;;;;;;4212842;28;20056;-43
2022/01/03 12:23:49;;;;;;;0.17;0.15;;;;;;;;;;4195664;28;20082;-43
2022/01/03 12:26:05;;;;;;;0.20;0.20;;;;;;;;;;4214254;28;20039;-42
2022/01/03 12:28:08;;;;;;;0.32;0.30;;;;;;;;;;4195670;28;20052;-43
2022/01/03 12:30:18;;;;;;;0.10;0.10;;;;;;;;;;4211048;28;20101;-42
2022/01/03 12:32:26;;;;;;;0.28;0.20;;;;;;;;;;4204099;28;20132;-42
2022/01/03 12:34:27;;;;;;;0.17;0.13;;;;;;;;;;4204172;28;20120;-43
2022/01/03 12:36:28;;;;;;;0.38;0.30;;;;;;;;;;4208616;28;20064;-43
2022/01/03 12:38:30;;;;;;;0.20;0.20;;;;;;;;;;4208174;28;20100;-43